Time;durP1;ratioP1;P1;durP2;ratioP2;P2;SDS_P1;SDS_P2;PMS_P1;PMS_P2;Temp;Humidity;BMP_temperature;BMP_pressure;BME280_temperature;BME280_humidity;BME280_pressure;Samples;Min_cycle;Max_cycle;Signal;HPM_P1;HPM_P2
2021/09/10 00:00:05;;;;;;;7.25;3.50;;;;;;;18.05;100.00;101422.16;6277074;22;20038;-74
2021/09/10 00:02:51;;;;;;;8.35;3.97;;;;;;;17.95;100.00;101426.06;6277236;22;20015;-74
2021/09/10 00:05:37;;;;;;;7.32;3.80;;;;;;;17.64;100.00;101423.63;6278654;22;20003;-74
2021/09/10 00:08:23;;;;;;;6.05;3.67;;;;;;;17.82;100.00;101422.13;6277912;22;20014;-74
2021/09/10 00:11:09;;;;;;;6.78;3.60;;;;;;;17.76;100.00;101414.41;6277594;22;20014;-74
2021/09/10 00:13:55;;;;;;;10.50;4.18;;;;;;;17.94;100.00;101421.69;6275129;22;20096;-74
2021/09/10 00:16:40;;;;;;;6.43;3.75;;;;;;;17.87;100.00;101414.84;6276946;22;20403;-74
2021/09/10 00:19:26;;;;;;;7.22;3.70;;;;;;;18.05;100.00;101424.81;6277616;22;20008;-73
2021/09/10 00:22:12;;;;;;;7.55;3.40;;;;;;;18.13;100.00;101420.09;6277435;22;20007;-74
2021/09/10 00:24:58;;;;;;;8.35;3.42;;;;;;;18.43;100.00;101410.97;6277305;22;20014;-74
2021/09/10 00:27:44;;;;;;;10.15;3.35;;;;;;;17.80;100.00;101414.22;6276716;22;20374;-73
2021/09/10 00:30:29;;;;;;;8.63;3.05;;;;;;;17.92;100.00;101419.06;6275042;22;20011;-74
2021/09/10 00:33:15;;;;;;;7.28;3.33;;;;;;;17.89;100.00;101426.28;6277592;22;20398;-74
2021/09/10 00:36:02;;;;;;;6.65;3.00;;;;;;;18.24;100.00;101423.19;6277961;22;20007;-73
2021/09/10 00:38:48;;;;;;;4.53;2.92;;;;;;;17.99;100.00;101430.31;6276772;22;20008;-73
2021/09/10 00:41:34;;;;;;;8.02;4.05;;;;;;;18.03;100.00;101431.94;6275984;22;20007;-74
2021/09/10 00:44:19;;;;;;;9.77;3.50;;;;;;;17.96;100.00;101433.06;6277528;22;20003;-74
2021/09/10 00:47:06;;;;;;;6.95;3.40;;;;;;;17.91;100.00;101433.25;6276855;22;20004;-74
2021/09/10 00:49:52;;;;;;;8.77;3.40;;;;;;;18.29;100.00;101437.16;6276980;22;20000;-74
2021/09/10 00:52:38;;;;;;;6.80;3.35;;;;;;;18.15;100.00;101442.97;6277324;22;20008;-75
2021/09/10 00:55:25;;;;;;;7.32;3.58;;;;;;;17.91;100.00;101443.00;6277983;22;20011;-74
2021/09/10 00:58:12;;;;;;;7.70;3.10;;;;;;;17.72;100.00;101444.59;6276698;22;20272;-74
2021/09/10 01:00:59;;;;;;;6.80;3.78;;;;;;;17.71;100.00;101448.13;6276151;22;20007;-74
2021/09/10 01:03:46;;;;;;;9.48;4.00;;;;;;;17.93;100.00;101441.16;6275535;22;20018;-73
2021/09/10 01:06:32;;;;;;;10.23;3.33;;;;;;;18.13;100.00;101446.59;6276716;22;20061;-73
2021/09/10 01:09:20;;;;;;;9.00;4.00;;;;;;;17.96;100.00;101447.22;6276364;22;20015;-74
2021/09/10 01:12:06;;;;;;;8.93;3.35;;;;;;;17.75;100.00;101444.44;6275955;22;20003;-74
2021/09/10 01:14:52;;;;;;;7.97;3.47;;;;;;;17.76;100.00;101446.22;6276400;22;20008;-74
2021/09/10 01:17:39;;;;;;;9.82;3.80;;;;;;;17.30;100.00;101449.53;6277687;22;20031;-75
2021/09/10 01:20:25;;;;;;;6.80;3.20;;;;;;;17.28;100.00;101447.84;6277533;22;20008;-74
2021/09/10 01:23:10;;;;;;;8.10;3.55;;;;;;;17.63;100.00;101444.88;6298142;22;20046;-74
2021/09/10 01:25:56;;;;;;;6.32;3.33;;;;;;;17.59;100.00;101453.84;6276738;22;20072;-74
2021/09/10 01:28:42;;;;;;;8.95;3.72;;;;;;;17.47;100.00;101446.31;6276419;22;20035;-74
2021/09/10 01:31:28;;;;;;;9.20;3.38;;;;;;;17.39;100.00;101454.50;6277428;22;20007;-74
2021/09/10 01:34:14;;;;;;;10.23;3.55;;;;;;;17.75;100.00;101449.75;6276717;22;20008;-74
2021/09/10 01:37:00;;;;;;;12.07;3.53;;;;;;;17.57;100.00;101458.38;6276030;22;20355;-74
2021/09/10 01:39:46;;;;;;;7.65;3.20;;;;;;;17.69;100.00;101450.84;6275329;22;20018;-74
2021/09/10 01:42:32;;;;;;;8.48;3.22;;;;;;;17.65;100.00;101453.66;6276832;22;20015;-74
2021/09/10 01:45:19;;;;;;;6.88;3.05;;;;;;;17.44;100.00;101446.47;6275088;22;20113;-74
2021/09/10 01:48:05;;;;;;;8.77;3.50;;;;;;;17.83;100.00;101455.66;6277429;22;20007;-74
2021/09/10 01:50:51;;;;;;;5.57;3.30;;;;;;;17.69;100.00;101455.28;6276441;22;20390;-74
2021/09/10 01:53:36;;;;;;;5.70;3.20;;;;;;;17.65;100.00;101445.72;6276081;22;20004;-74
2021/09/10 01:56:22;;;;;;;6.60;3.60;;;;;;;17.91;100.00;101450.94;6276036;22;20041;-74
2021/09/10 01:59:08;;;;;;;7.10;3.80;;;;;;;17.62;100.00;101452.00;6276951;22;20012;-74
2021/09/10 02:01:55;;;;;;;7.43;3.15;;;;;;;17.34;100.00;101452.94;6276244;22;20077;-74
2021/09/10 02:04:41;;;;;;;6.13;3.20;;;;;;;17.46;100.00;101456.06;6275801;22;20007;-74
2021/09/10 02:07:27;;;;;;;7.40;3.70;;;;;;;17.46;100.00;101450.78;6277356;22;20004;-74
2021/09/10 02:10:13;;;;;;;8.15;3.75;;;;;;;17.26;100.00;101460.25;6276692;22;20015;-74
2021/09/10 02:13:00;;;;;;;9.85;3.63;;;;;;;17.35;100.00;101454.66;6276382;22;20069;-74
2021/09/10 02:15:46;;;;;;;9.43;3.80;;;;;;;17.16;100.00;101461.50;6275883;22;20007;-74
2021/09/10 02:18:32;;;;;;;5.55;3.83;;;;;;;17.18;100.00;101454.34;6277154;22;20367;-74
2021/09/10 02:21:18;;;;;;;11.57;4.32;;;;;;;17.19;100.00;101454.31;6276088;22;20019;-74
2021/09/10 02:24:05;;;;;;;9.43;4.00;;;;;;;16.96;100.00;101456.81;6275423;22;20012;-74
2021/09/10 02:26:51;;;;;;;7.55;3.75;;;;;;;17.02;100.00;101450.47;6275100;22;20008;-74
2021/09/10 02:29:36;;;;;;;8.18;3.95;;;;;;;17.27;100.00;101452.28;6275143;22;20016;-74
2021/09/10 02:32:22;;;;;;;7.60;4.50;;;;;;;17.22;100.00;101458.63;6276092;22;20018;-74
2021/09/10 02:35:08;;;;;;;7.95;3.80;;;;;;;17.09;100.00;101452.00;6274759;22;20008;-74
2021/09/10 02:37:54;;;;;;;11.40;4.07;;;;;;;17.26;100.00;101450.56;6275842;22;20114;-74
2021/09/10 02:40:40;;;;;;;6.95;4.53;;;;;;;17.12;100.00;101452.75;6275430;22;20032;-74
2021/09/10 02:43:26;;;;;;;15.05;5.20;;;;;;;17.42;100.00;101458.88;6276403;22;20004;-74
2021/09/10 02:46:12;;;;;;;8.13;4.72;;;;;;;16.97;100.00;101455.06;6276988;22;20493;-74
2021/09/10 02:48:58;;;;;;;9.13;5.22;;;;;;;16.86;100.00;101462.47;6276476;22;20003;-74
2021/09/10 02:51:43;;;;;;;10.32;4.97;;;;;;;16.92;100.00;101468.41;6275970;22;20011;-74
2021/09/10 02:54:30;;;;;;;10.75;5.35;;;;;;;16.86;100.00;101468.63;6276489;22;20418;-74
2021/09/10 02:57:16;;;;;;;8.75;5.22;;;;;;;16.89;100.00;101473.84;6280479;22;20007;-74
2021/09/10 03:00:04;;;;;;;8.65;5.15;;;;;;;16.70;100.00;101471.78;6278900;22;20007;-74
2021/09/10 03:02:49;;;;;;;14.07;5.63;;;;;;;16.66;100.00;101475.44;6278640;22;20031;-74
2021/09/10 03:05:35;;;;;;;9.95;4.75;;;;;;;17.00;100.00;101477.00;6278357;22;20007;-75
2021/09/10 03:08:22;;;;;;;11.10;5.60;;;;;;;16.88;100.00;101477.38;6277869;22;20003;-74
2021/09/10 03:11:09;;;;;;;10.82;5.05;;;;;;;16.94;100.00;101479.84;6278239;22;20046;-73
2021/09/10 03:13:55;;;;;;;11.70;5.47;;;;;;;16.75;100.00;101475.16;6277729;22;20043;-73
2021/09/10 03:16:40;;;;;;;8.25;4.90;;;;;;;16.63;100.00;101479.03;6277686;22;20008;-74
2021/09/10 03:19:28;;;;;;;11.40;4.57;;;;;;;16.33;100.00;101482.56;6277509;22;20031;-74
2021/09/10 03:22:14;;;;;;;11.57;5.10;;;;;;;16.34;100.00;101472.84;6278006;22;20421;-74
2021/09/10 03:25:00;;;;;;;12.55;5.03;;;;;;;16.12;100.00;101469.09;6278572;22;20090;-73
2021/09/10 03:27:46;;;;;;;10.20;4.85;;;;;;;16.00;100.00;101474.72;6279999;22;20030;-74
2021/09/10 03:30:32;;;;;;;7.35;4.90;;;;;;;16.46;100.00;101478.69;6277578;22;20322;-74
2021/09/10 03:33:18;;;;;;;10.15;5.05;;;;;;;16.31;100.00;101478.25;6276533;22;20004;-74
2021/09/10 03:36:04;;;;;;;11.63;4.90;;;;;;;16.50;100.00;101477.69;6277993;22;20000;-73
2021/09/10 03:38:50;;;;;;;11.73;5.72;;;;;;;16.72;100.00;101469.97;6277392;22;20087;-73
2021/09/10 03:41:35;;;;;;;12.35;5.63;;;;;;;16.84;100.00;101466.94;6276912;22;20015;-73
2021/09/10 03:44:21;;;;;;;10.02;5.00;;;;;;;16.44;100.00;101467.25;6277108;22;20007;-73
2021/09/10 03:47:07;;;;;;;12.23;5.10;;;;;;;16.28;100.00;101467.75;6278095;22;20411;-73
2021/09/10 03:49:53;;;;;;;12.95;5.40;;;;;;;16.42;100.00;101477.03;6278467;22;20014;-73
2021/09/10 03:52:39;;;;;;;10.70;5.05;;;;;;;16.33;100.00;101476.41;6277756;22;20004;-73
2021/09/10 03:55:25;;;;;;;8.82;5.15;;;;;;;15.91;100.00;101478.47;6277550;22;20022;-73
2021/09/10 03:58:11;;;;;;;8.75;4.40;;;;;;;16.23;100.00;101473.16;6277367;22;20291;-73
2021/09/10 04:00:57;;;;;;;8.57;4.85;;;;;;;16.13;100.00;101470.81;6277363;22;20018;-74
2021/09/10 04:03:42;;;;;;;9.85;5.15;;;;;;;16.38;100.00;101470.06;6277079;22;20003;-74
2021/09/10 04:06:28;;;;;;;10.35;5.22;;;;;;;16.21;100.00;101464.41;6277280;22;20007;-74
2021/09/10 04:09:14;;;;;;;11.10;5.10;;;;;;;15.90;100.00;101465.28;6277871;22;20157;-74
2021/09/10 04:12:00;;;;;;;9.57;5.53;;;;;;;16.61;100.00;101469.44;6277182;22;20006;-74
2021/09/10 04:14:46;;;;;;;12.43;5.32;;;;;;;16.61;100.00;101469.44;6276915;22;20015;-74
2021/09/10 04:17:31;;;;;;;13.52;5.63;;;;;;;16.53;100.00;101471.44;6278407;22;20082;-74
2021/09/10 04:20:17;;;;;;;10.18;4.95;;;;;;;16.60;100.00;101470.34;6278050;22;20007;-74
2021/09/10 04:23:03;;;;;;;11.45;5.72;;;;;;;16.51;100.00;101468.81;6276380;22;20341;-74
2021/09/10 04:25:49;;;;;;;8.60;5.13;;;;;;;16.64;100.00;101470.19;6277328;22;20306;-74
2021/09/10 04:28:34;;;;;;;12.63;5.38;;;;;;;16.13;100.00;101471.69;6277974;22;20027;-74
2021/09/10 04:31:20;;;;;;;11.10;5.28;;;;;;;16.28;100.00;101470.38;6276813;22;20307;-74
2021/09/10 04:34:06;;;;;;;14.35;5.68;;;;;;;16.44;100.00;101474.34;6276764;22;20398;-74
2021/09/10 04:36:52;;;;;;;11.90;5.53;;;;;;;16.37;100.00;101478.03;6277097;22;20418;-74
2021/09/10 04:39:38;;;;;;;10.45;5.95;;;;;;;16.43;100.00;101485.84;6277537;22;20015;-74
2021/09/10 04:42:24;;;;;;;12.90;5.60;;;;;;;16.65;100.00;101479.88;6278700;22;20008;-74
2021/09/10 04:45:10;;;;;;;12.43;5.22;;;;;;;16.44;100.00;101479.66;6276612;22;20086;-73
2021/09/10 04:47:56;;;;;;;11.35;5.30;;;;;;;16.23;100.00;101475.78;6277375;22;20019;-74
2021/09/10 04:50:41;;;;;;;13.88;5.50;;;;;;;16.56;100.00;101474.00;6276933;22;20080;-74
2021/09/10 04:53:27;;;;;;;11.70;5.47;;;;;;;16.89;100.00;101478.25;6277244;22;20015;-74
2021/09/10 04:56:13;;;;;;;12.80;5.18;;;;;;;16.56;100.00;101476.63;6276446;22;20039;-74
2021/09/10 04:58:59;;;;;;;10.80;4.78;;;;;;;17.07;100.00;101470.59;6277431;22;20403;-74
2021/09/10 05:01:47;;;;;;;9.25;5.20;;;;;;;16.99;100.00;101466.44;6276908;22;20007;-74
2021/09/10 05:04:33;;;;;;;10.80;4.97;;;;;;;16.96;100.00;101466.56;6278156;22;20061;-74
2021/09/10 05:07:18;;;;;;;13.15;5.50;;;;;;;16.94;100.00;101473.66;6275850;22;20004;-74
2021/09/10 05:10:05;;;;;;;13.68;5.10;;;;;;;17.19;100.00;101471.97;6276613;22;20015;-74
2021/09/10 05:12:51;;;;;;;12.90;4.70;;;;;;;17.08;100.00;101469.66;6277189;22;20004;-74
2021/09/10 05:15:37;;;;;;;9.88;4.95;;;;;;;17.39;100.00;101472.19;6276248;22;20019;-75
2021/09/10 05:18:22;;;;;;;10.90;5.40;;;;;;;17.80;100.00;101475.19;6275865;22;20007;-74
2021/09/10 05:21:08;;;;;;;10.05;5.80;;;;;;;17.70;100.00;101475.56;6275499;22;20362;-75
2021/09/10 05:23:55;;;;;;;15.50;6.35;;;;;;;17.79;100.00;101480.53;6276286;22;20284;-75
2021/09/10 05:26:42;;;;;;;15.93;6.82;;;;;;;17.88;100.00;101477.59;6276095;22;20008;-75
2021/09/10 05:29:28;;;;;;;14.07;7.22;;;;;;;18.04;100.00;101471.66;6275599;22;20023;-75
2021/09/10 05:32:14;;;;;;;13.80;6.95;;;;;;;17.60;100.00;101468.88;6275759;22;19999;-75
2021/09/10 05:35:00;;;;;;;16.65;6.50;;;;;;;17.89;100.00;101466.91;6276825;22;20066;-75
2021/09/10 05:37:46;;;;;;;13.85;6.68;;;;;;;18.37;100.00;101472.25;6276242;22;20417;-75
2021/09/10 05:40:32;;;;;;;16.95;7.38;;;;;;;18.21;100.00;101471.91;6277014;22;20035;-75
2021/09/10 05:43:18;;;;;;;18.40;7.50;;;;;;;18.63;100.00;101478.31;6276553;22;20015;-74
2021/09/10 05:46:04;;;;;;;13.27;6.90;;;;;;;18.48;100.00;101480.66;6276064;22;20011;-75
2021/09/10 05:48:49;;;;;;;19.00;5.88;;;;;;;18.68;100.00;101486.97;6276677;22;20004;-74
2021/09/10 05:51:36;;;;;;;19.17;6.20;;;;;;;18.87;100.00;101482.69;6276123;22;20023;-73
2021/09/10 05:54:22;;;;;;;13.00;6.88;;;;;;;18.58;100.00;101484.72;6277274;22;20014;-75
2021/09/10 05:57:08;;;;;;;12.60;6.32;;;;;;;18.66;100.00;101482.63;6275585;22;20073;-75
2021/09/10 05:59:53;;;;;;;10.00;6.50;;;;;;;18.45;100.00;101486.13;6276004;22;20015;-75
2021/09/10 06:02:40;;;;;;;15.30;6.07;;;;;;;18.24;100.00;101489.50;6275523;22;20003;-75
2021/09/10 06:05:26;;;;;;;17.38;7.25;;;;;;;18.62;100.00;101489.00;6276359;22;20430;-74
2021/09/10 06:08:11;;;;;;;14.40;8.35;;;;;;;18.64;100.00;101487.13;6274787;22;20031;-73
2021/09/10 06:10:57;;;;;;;14.07;8.18;;;;;;;18.95;100.00;101492.97;6277746;22;20000;-73
2021/09/10 06:13:43;;;;;;;17.85;9.52;;;;;;;18.80;100.00;101490.91;6277019;22;20008;-73
2021/09/10 06:16:29;;;;;;;18.70;10.43;;;;;;;18.94;100.00;101499.22;6276937;22;20008;-73
2021/09/10 06:19:15;;;;;;;22.98;9.10;;;;;;;18.80;100.00;101498.88;6276363;22;20023;-74
2021/09/10 06:22:00;;;;;;;17.05;9.70;;;;;;;19.34;100.00;101499.41;6277010;22;20112;-73
2021/09/10 06:24:46;;;;;;;21.17;9.95;;;;;;;19.28;100.00;101504.09;6276887;22;20003;-73
2021/09/10 06:27:33;;;;;;;16.33;9.50;;;;;;;19.61;100.00;101506.19;6276239;22;20046;-74
2021/09/10 06:30:20;;;;;;;24.10;10.27;;;;;;;19.54;100.00;101506.53;6277834;22;20019;-74
2021/09/10 06:33:05;;;;;;;20.73;8.30;;;;;;;19.31;100.00;101509.25;6278153;22;20010;-74
2021/09/10 06:35:51;;;;;;;15.02;7.80;;;;;;;19.63;100.00;101507.03;6278296;22;20070;-73
2021/09/10 06:38:37;;;;;;;18.58;7.68;;;;;;;19.71;100.00;101504.03;6278140;22;20008;-74
2021/09/10 06:41:23;;;;;;;18.05;7.25;;;;;;;19.08;100.00;101507.50;6279174;22;20314;-74
2021/09/10 06:44:09;;;;;;;15.80;7.20;;;;;;;19.81;100.00;101513.34;6278013;22;20395;-74
2021/09/10 06:46:55;;;;;;;15.52;6.65;;;;;;;19.80;100.00;101503.66;6278846;22;20003;-74
2021/09/10 06:49:41;;;;;;;22.13;6.88;;;;;;;19.73;100.00;101511.00;6276607;22;20078;-74
2021/09/10 06:52:27;;;;;;;12.32;5.80;;;;;;;20.41;100.00;101510.69;6278139;22;20095;-74
2021/09/10 06:55:12;;;;;;;12.05;5.70;;;;;;;20.41;100.00;101514.19;6276982;22;20003;-74
2021/09/10 06:57:58;;;;;;;16.30;5.47;;;;;;;20.60;100.00;101509.78;6278045;22;20410;-74
2021/09/10 07:00:44;;;;;;;11.73;5.57;;;;;;;20.68;100.00;101509.41;6277312;22;20015;-74
2021/09/10 07:03:30;;;;;;;10.75;5.07;;;;;;;20.31;100.00;101507.59;6278717;22;20072;-74
2021/09/10 07:06:16;;;;;;;17.77;5.63;;;;;;;21.07;100.00;101512.91;6277187;22;20004;-74
2021/09/10 07:09:02;;;;;;;11.35;5.40;;;;;;;21.07;100.00;101510.25;6277273;22;20309;-72
2021/09/10 07:11:48;;;;;;;15.13;6.18;;;;;;;21.48;100.00;101515.28;6277799;22;20014;-72
2021/09/10 07:14:34;;;;;;;18.48;6.88;;;;;;;21.58;100.00;101529.03;6277632;22;20163;-73
2021/09/10 07:17:21;;;;;;;16.45;6.75;;;;;;;21.44;100.00;101527.03;6278012;22;20152;-72
2021/09/10 07:20:07;;;;;;;13.45;7.30;;;;;;;21.89;100.00;101526.56;6277308;22;20004;-74
2021/09/10 07:22:53;;;;;;;14.73;6.13;;;;;;;21.38;100.00;101524.66;6277633;22;20014;-73
2021/09/10 07:25:39;;;;;;;13.10;5.82;;;;;;;21.11;100.00;101523.34;6276919;22;20019;-73
2021/09/10 07:28:25;;;;;;;15.00;5.80;;;;;;;20.88;100.00;101530.66;6277697;22;20050;-74
2021/09/10 07:31:10;;;;;;;15.93;6.22;;;;;;;20.82;100.00;101531.81;6277862;22;20402;-73
2021/09/10 07:33:56;;;;;;;10.95;5.53;;;;;;;21.12;100.00;101534.88;6277805;22;20015;-73
2021/09/10 07:36:48;;;;;;;8.57;5.38;;;;;;;21.67;100.00;101537.44;6277460;22;20011;-72
2021/09/10 07:39:34;;;;;;;10.98;5.63;;;;;;;21.64;100.00;101540.25;6277185;22;20054;-73
2021/09/10 07:42:21;;;;;;;10.02;5.47;;;;;;;21.28;100.00;101536.72;6276353;22;20015;-73
2021/09/10 07:45:07;;;;;;;15.23;5.90;;;;;;;21.53;100.00;101533.69;6277206;22;20079;-72
2021/09/10 07:47:53;;;;;;;15.77;5.72;;;;;;;21.40;100.00;101533.47;6278268;22;20353;-75
2021/09/10 07:50:39;;;;;;;8.82;4.95;;;;;;;21.83;100.00;101546.41;6277593;22;20069;-74
2021/09/10 07:53:25;;;;;;;10.90;4.75;;;;;;;22.39;100.00;101530.97;6278072;22;20073;-75
2021/09/10 07:56:10;;;;;;;9.82;4.75;;;;;;;22.37;100.00;101527.53;6277218;22;20018;-75
2021/09/10 07:58:56;;;;;;;7.07;4.07;;;;;;;22.42;100.00;101520.13;6277914;22;20007;-75
2021/09/10 08:01:42;;;;;;;6.25;3.50;;;;;;;22.55;100.00;101528.41;6277392;22;20008;-71
2021/09/10 08:04:28;;;;;;;7.30;3.70;;;;;;;23.16;100.00;101529.41;6272449;22;20011;-74
2021/09/10 08:07:14;;;;;;;8.13;3.53;;;;;;;22.37;100.00;101532.00;6268806;22;20026;-74
2021/09/10 08:10:00;;;;;;;5.97;3.22;;;;;;;22.94;100.00;101532.41;6270465;22;20327;-73
2021/09/10 08:12:47;;;;;;;6.45;3.40;;;;;;;23.27;100.00;101533.22;6271449;22;20331;-73
2021/09/10 08:15:33;;;;;;;9.00;3.63;;;;;;;23.52;98.97;101531.81;6268845;22;20045;-74
2021/09/10 08:18:18;;;;;;;10.88;3.60;;;;;;;23.00;98.47;101526.75;6272366;22;20279;-73
2021/09/10 08:21:04;;;;;;;5.72;3.30;;;;;;;23.73;93.50;101527.88;6271673;22;20085;-75
2021/09/10 08:23:50;;;;;;;5.28;3.35;;;;;;;24.16;85.16;101527.09;6271204;22;20014;-75
2021/09/10 08:26:36;;;;;;;6.65;3.33;;;;;;;23.67;90.66;101530.94;6268534;22;20038;-74
2021/09/10 08:29:25;;;;;;;8.15;2.95;;;;;;;22.99;91.21;101522.31;6271639;22;20027;-75
2021/09/10 08:32:11;;;;;;;7.30;3.58;;;;;;;23.85;87.78;101511.09;6270499;22;20018;-75
2021/09/10 08:34:56;;;;;;;6.60;3.08;;;;;;;23.64;88.64;101521.28;6267612;22;20443;-75
2021/09/10 08:37:42;;;;;;;4.82;2.55;;;;;;;24.08;86.59;101514.19;6270318;22;20008;-74
2021/09/10 08:40:28;;;;;;;6.50;2.92;;;;;;;24.37;86.25;101509.69;6271179;22;20399;-74
2021/09/10 08:43:14;;;;;;;4.00;2.42;;;;;;;24.44;82.70;101509.25;6270913;22;20342;-75
2021/09/10 08:45:59;;;;;;;7.85;3.78;;;;;;;24.13;84.50;101509.41;6267930;22;20011;-75
2021/09/10 08:48:46;;;;;;;6.80;3.20;;;;;;;24.68;82.43;101501.50;6270712;22;20011;-75
2021/09/10 08:51:32;;;;;;;4.65;2.63;;;;;;;24.83;77.75;101498.69;6270510;22;20006;-74
2021/09/10 08:54:18;;;;;;;4.10;2.67;;;;;;;24.64;79.37;101494.63;6268807;22;20007;-75
2021/09/10 08:57:04;;;;;;;6.60;3.03;;;;;;;24.94;78.71;101495.31;6270113;22;20062;-74
2021/09/10 09:00:07;;;;;;;5.55;2.78;;;;;;;25.07;74.85;101488.22;6271192;22;20008;-75
2021/09/10 09:03:06;;;;;;;4.15;2.47;;;;;;;24.95;75.92;101484.50;6270888;22;20007;-75
2021/09/10 09:05:52;;;;;;;4.35;2.50;;;;;;;24.86;74.13;101473.50;6269317;22;20007;-74
2021/09/10 09:08:40;;;;;;;6.78;2.55;;;;;;;25.26;70.95;101475.31;6292980;22;20014;-74
2021/09/10 09:11:25;;;;;;;7.35;2.90;;;;;;;25.19;70.22;101466.81;6271190;22;19999;-74
2021/09/10 09:14:12;;;;;;;6.95;2.85;;;;;;;25.37;69.65;101464.78;6269753;22;20031;-75
2021/09/10 09:17:16;;;;;;;10.07;3.05;;;;;;;25.55;67.63;101463.56;6270062;22;20015;-75
2021/09/10 09:20:11;;;;;;;7.85;3.38;;;;;;;25.26;67.81;101473.50;6270766;22;20019;-72
2021/09/10 09:23:11;;;;;;;7.53;3.03;;;;;;;25.08;68.13;101461.28;6269563;22;20431;-72
2021/09/10 09:25:59;;;;;;;9.75;3.35;;;;;;;24.81;69.71;101459.53;6267082;22;20007;-71
2021/09/10 09:28:46;;;;;;;8.63;2.78;;;;;;;24.81;68.92;101462.22;6269855;22;20098;-72
2021/09/10 09:31:33;;;;;;;6.82;2.70;;;;;;;25.11;68.56;101455.72;6271335;22;20003;-74
2021/09/10 09:35:18;;;;;;;7.32;2.90;;;;;;;25.40;66.76;101452.00;6249860;22;20113;-76
2021/09/10 09:38:20;;;;;;;8.65;3.55;;;;;;;25.31;65.27;101459.81;6193313;23;20016;-73
2021/09/10 09:41:16;;;;;;;8.02;3.08;;;;;;;25.29;65.01;101451.00;6259044;22;20012;-73
2021/09/10 09:44:10;;;;;;;6.88;3.00;;;;;;;25.26;64.33;101452.03;6254985;22;20262;-73
2021/09/10 09:47:02;;;;;;;6.38;2.95;;;;;;;25.33;63.85;101460.56;6255809;22;20409;-73
2021/09/10 09:50:03;;;;;;;6.78;3.03;;;;;;;25.55;61.62;101442.91;6255807;22;20092;-73
2021/09/10 09:52:51;;;;;;;6.03;2.88;;;;;;;25.52;60.94;101447.66;6256534;22;20018;-73
2021/09/10 09:55:36;;;;;;;7.97;3.08;;;;;;;25.22;60.26;101423.69;6253417;22;20012;-73
2021/09/10 09:58:22;;;;;;;5.20;3.00;;;;;;;25.48;60.68;101441.59;6255961;22;20035;-73
2021/09/10 10:01:12;;;;;;;4.90;3.22;;;;;;;25.80;58.88;101437.56;6254798;22;20014;-75
2021/09/10 10:03:57;;;;;;;9.13;3.40;;;;;;;25.45;59.27;101435.59;6258906;22;20077;-74
2021/09/10 10:06:44;;;;;;;8.40;3.20;;;;;;;25.75;57.81;101433.50;6259164;22;20385;-75
2021/09/10 10:09:31;;;;;;;5.93;2.90;;;;;;;25.81;57.66;101433.09;6259702;22;20234;-73
2021/09/10 10:12:23;;;;;;;8.30;2.90;;;;;;;26.23;57.28;101430.09;6260213;22;20027;-73
2021/09/10 10:15:29;;;;;;;6.28;2.67;;;;;;;25.72;58.55;101423.81;6257383;22;20301;-72
2021/09/10 10:18:35;;;;;;;7.35;2.92;;;;;;;25.95;57.40;101425.81;6258602;22;20012;-73
2021/09/10 10:21:49;;;;;;;11.48;3.00;;;;;;;25.26;58.39;101421.66;6260254;22;20131;-74
2021/09/10 10:24:55;;;;;;;6.45;3.00;;;;;;;25.79;56.97;101422.44;6257657;22;20393;-73
2021/09/10 10:27:48;;;;;;;13.10;3.92;;;;;;;25.92;56.15;101426.00;6259582;22;20014;-73
2021/09/10 10:30:40;;;;;;;7.85;3.10;;;;;;;25.79;56.72;101424.25;6259439;22;20499;-73
2021/09/10 10:33:27;;;;;;;6.47;3.10;;;;;;;26.20;55.10;101425.81;6258947;22;20118;-73
2021/09/10 10:36:36;;;;;;;5.78;3.50;;;;;;;26.12;54.05;101428.16;6256857;22;20089;-73
2021/09/10 10:39:29;;;;;;;9.25;3.67;;;;;;;26.46;52.92;101424.81;6258698;22;20026;-74
2021/09/10 10:42:15;;;;;;;12.23;3.67;;;;;;;26.52;51.68;101420.84;6259662;22;20007;-73
2021/09/10 10:45:01;;;;;;;7.10;2.95;;;;;;;26.92;49.67;101423.19;6257426;22;20069;-73
2021/09/10 10:47:47;;;;;;;6.50;2.88;;;;;;;26.90;48.86;101424.28;6260683;22;20141;-75
2021/09/10 10:50:34;;;;;;;8.38;3.42;;;;;;;27.17;49.57;101415.00;6258563;22;20078;-75
2021/09/10 10:53:20;;;;;;;6.28;2.90;;;;;;;26.83;48.66;101410.44;6263449;22;20406;-75
2021/09/10 10:56:28;;;;;;;6.25;3.40;;;;;;;27.26;47.97;101414.38;6257345;22;20014;-75
2021/09/10 10:59:14;;;;;;;8.98;3.30;;;;;;;27.40;46.83;101400.72;6257630;22;20016;-75
2021/09/10 11:05:06;;;;;;;7.47;3.47;;;;;;;27.34;46.60;101401.19;6258064;22;20046;-75
2021/09/10 11:07:52;;;;;;;7.57;3.78;;;;;;;27.43;45.25;101403.16;6259619;22;20011;-75
2021/09/10 11:10:38;;;;;;;6.22;3.30;;;;;;;26.92;45.38;101401.69;6260077;22;20065;-75
2021/09/10 11:13:24;;;;;;;7.25;3.10;;;;;;;26.63;46.14;101396.72;6259837;22;20298;-75
2021/09/10 11:16:25;;;;;;;8.93;3.00;;;;;;;26.58;46.77;101385.47;6255638;22;20019;-76
2021/09/10 11:19:20;;;;;;;6.55;3.17;;;;;;;26.93;45.50;101391.78;6259761;22;20007;-77
2021/09/10 11:22:06;;;;;;;8.95;3.30;;;;;;;27.43;43.65;101383.47;6259166;22;20279;-75
2021/09/10 11:25:08;;;;;;;8.85;3.00;;;;;;;26.75;43.82;101377.00;6260086;22;20025;-76
2021/09/10 11:27:54;;;;;;;9.90;3.15;;;;;;;26.68;43.05;101379.28;6260802;22;20019;-77
2021/09/10 11:30:41;;;;;;;10.80;3.20;;;;;;;26.89;44.03;101374.16;6262221;22;20083;-76
2021/09/10 11:33:41;;;;;;;8.10;3.42;;;;;;;26.75;45.63;101374.31;6244350;22;20046;-77
2021/09/10 11:36:27;;;;;;;14.55;5.63;;;;;;;26.45;46.75;101376.53;6262764;22;20057;-77
2021/09/10 11:39:13;;;;;;;8.73;3.70;;;;;;;26.94;46.30;101375.53;6260881;22;20007;-77
2021/09/10 11:41:58;;;;;;;5.68;3.10;;;;;;;27.00;46.05;101369.69;6263227;22;20573;-77
2021/09/10 11:45:20;;;;;;;14.48;3.60;;;;;;;26.80;47.85;101372.16;6258197;22;20008;-76
2021/09/10 11:48:08;;;;;;;6.03;3.10;;;;;;;27.31;46.81;101365.56;6136731;23;20009;-76
2021/09/10 11:50:57;;;;;;;6.28;3.17;;;;;;;27.21;46.38;101370.78;6257140;22;20430;-77
2021/09/10 11:53:49;;;;;;;5.18;2.90;;;;;;;27.00;46.70;101369.69;6258893;22;20299;-76
2021/09/10 11:56:38;;;;;;;7.10;3.42;;;;;;;26.88;46.48;101375.16;6257344;22;20568;-76
2021/09/10 11:59:26;;;;;;;5.45;3.22;;;;;;;27.41;46.20;101362.03;6258175;22;20054;-77
2021/09/10 12:02:13;;;;;;;7.38;3.35;;;;;;;27.29;44.51;101367.53;6257201;22;20003;-77
2021/09/10 12:05:00;;;;;;;8.15;3.67;;;;;;;26.29;42.77;101366.03;6255156;22;20038;-77
2021/09/10 12:07:50;;;;;;;7.60;3.50;;;;;;;26.89;44.06;101366.94;6257665;22;20004;-77
2021/09/10 12:10:35;;;;;;;13.18;3.85;;;;;;;26.79;45.17;101359.66;6257126;22;20008;-77
2021/09/10 12:13:21;;;;;;;8.25;3.35;;;;;;;27.19;44.68;101361.94;6256682;22;20497;-76
2021/09/10 12:16:15;;;;;;;9.13;3.90;;;;;;;26.88;43.38;101364.38;6256705;22;20446;-76
2021/09/10 12:19:02;;;;;;;12.20;4.07;;;;;;;27.35;42.17;101354.44;6257646;22;20018;-76
2021/09/10 12:21:48;;;;;;;6.10;3.55;;;;;;;26.67;42.15;101361.44;6258082;22;20178;-77
2021/09/10 12:24:34;;;;;;;14.50;3.70;;;;;;;26.30;40.95;101359.72;6254543;22;20418;-76
2021/09/10 12:27:29;;;;;;;8.32;3.08;;;;;;;25.73;41.36;101354.91;6255090;22;20033;-78
2021/09/10 12:30:16;;;;;;;4.57;3.05;;;;;;;25.54;41.45;101354.44;6256806;22;20019;-76
2021/09/10 12:33:03;;;;;;;6.47;3.45;;;;;;;25.99;40.44;101362.88;6257849;22;20023;-76
2021/09/10 12:35:54;;;;;;;4.80;3.40;;;;;;;25.92;40.54;101356.16;6255677;22;20019;-76
2021/09/10 12:38:46;;;;;;;8.68;3.70;;;;;;;26.34;40.45;101357.66;6260312;22;20007;-78
2021/09/10 12:41:31;;;;;;;10.73;3.70;;;;;;;25.93;40.02;101357.91;6258483;22;20018;-74
2021/09/10 12:44:25;;;;;;;9.52;3.50;;;;;;;26.12;39.42;101355.63;6256735;22;20008;-74
2021/09/10 12:47:11;;;;;;;10.80;3.88;;;;;;;25.97;39.47;101342.47;6256994;22;20076;-76
2021/09/10 12:49:57;;;;;;;7.43;3.42;;;;;;;25.91;39.28;101351.78;6256654;22;20342;-77
2021/09/10 12:52:43;;;;;;;17.17;10.40;;;;;;;26.54;38.41;101352.53;6257578;22;20023;-76